Time;durP1;ratioP1;P1;durP2;ratioP2;P2;SDS_P1;SDS_P2;PMS_P1;PMS_P2;Temp;Humidity;BMP_temperature;BMP_pressure;BME280_temperature;BME280_humidity;BME280_pressure;Samples;Min_cycle;Max_cycle;Signal;HPM_P1;HPM_P2
2022/05/04 00:00:19;;;;;;;2.97;2.53;;;;;;;9.51;69.91;102161.84;5044199;28;20072;-78
2022/05/04 00:02:44;;;;;;;3.97;2.33;;;;;;;9.52;69.81;102160.97;5078318;28;20244;-78
2022/05/04 00:05:10;;;;;;;5.88;2.75;;;;;;;9.51;69.99;102160.09;5078809;28;20050;-78
2022/05/04 00:07:36;;;;;;;5.85;2.90;;;;;;;9.51;69.97;102164.47;5060159;28;20108;-78
2022/05/04 00:10:02;;;;;;;4.40;2.58;;;;;;;9.51;70.02;102162.69;5060834;28;20035;-78
2022/05/04 00:12:28;;;;;;;2.65;2.30;;;;;;;9.50;69.91;102166.22;5077696;28;20093;-78
2022/05/04 00:14:53;;;;;;;5.53;2.92;;;;;;;9.49;69.54;102163.63;5078513;28;20355;-78
2022/05/04 00:17:19;;;;;;;8.68;3.03;;;;;;;9.48;69.76;102167.13;5059930;28;20398;-78
2022/05/04 00:19:45;;;;;;;5.68;2.70;;;;;;;9.48;69.67;102164.50;5078473;28;20041;-78
2022/05/04 00:22:10;;;;;;;5.05;2.25;;;;;;;9.47;69.61;102168.88;5043861;28;20332;-78
2022/05/04 00:24:35;;;;;;;4.43;2.80;;;;;;;9.47;69.73;102165.41;5059848;28;20270;-78
2022/05/04 00:27:01;;;;;;;4.60;2.83;;;;;;;9.47;69.72;102160.16;5078169;28;20032;-78
2022/05/04 00:29:26;;;;;;;3.53;2.47;;;;;;;9.47;70.08;102160.16;5059428;28;20040;-78
2022/05/04 00:31:52;;;;;;;3.13;2.15;;;;;;;9.47;69.96;102157.56;5078098;28;20043;-78
2022/05/04 00:34:17;;;;;;;2.92;2.05;;;;;;;9.47;69.91;102160.16;5077850;28;20379;-78
2022/05/04 00:36:43;;;;;;;3.72;2.30;;;;;;;9.46;69.98;102156.69;5043439;28;20025;-78
2022/05/04 00:39:08;;;;;;;2.85;2.25;;;;;;;9.46;69.79;102164.56;5059983;28;20040;-78
2022/05/04 00:41:34;;;;;;;3.72;2.53;;;;;;;9.46;70.02;102150.59;5077927;28;20032;-78
2022/05/04 00:43:59;;;;;;;4.78;2.80;;;;;;;9.46;69.91;102155.81;5077854;28;20035;-78
2022/05/04 00:46:25;;;;;;;6.55;2.92;;;;;;;9.45;69.75;102156.72;5043033;28;20037;-78
2022/05/04 00:48:50;;;;;;;3.55;2.67;;;;;;;9.45;69.60;102159.34;5059729;28;20060;-78
2022/05/04 00:51:16;;;;;;;2.45;2.13;;;;;;;9.44;69.56;102155.88;5059839;28;20043;-78
2022/05/04 00:53:44;;;;;;;6.45;2.80;;;;;;;9.42;69.47;102147.16;5056204;28;20420;-78
2022/05/04 00:56:10;;;;;;;7.70;2.88;;;;;;;9.40;69.39;102148.94;5057893;28;20071;-78
2022/05/04 00:58:55;;;;;;;5.05;2.75;;;;;;;9.39;69.75;102148.06;5072347;28;20111;-78
2022/05/04 01:01:31;;;;;;;4.45;2.42;;;;;;;9.37;69.00;102143.78;5057612;28;20044;-78
2022/05/04 01:03:59;;;;;;;3.67;2.83;;;;;;;9.37;69.53;102149.00;5057735;28;20254;-78
2022/05/04 01:06:25;;;;;;;4.38;2.92;;;;;;;9.37;69.69;102142.00;5057434;28;20044;-78
2022/05/04 01:08:52;;;;;;;3.38;2.65;;;;;;;9.34;69.07;102149.88;5056751;28;20041;-78
2022/05/04 01:11:18;;;;;;;3.33;2.67;;;;;;;9.34;69.43;102144.66;5056265;28;20032;-78
2022/05/04 01:14:03;;;;;;;4.85;2.60;;;;;;;9.34;69.56;102149.88;5057282;28;20112;-78
2022/05/04 01:16:30;;;;;;;3.08;2.70;;;;;;;9.35;69.67;102143.78;5056961;28;20105;-78
2022/05/04 01:18:56;;;;;;;5.50;2.70;;;;;;;9.34;69.50;102144.66;5055704;28;20229;-78
2022/05/04 01:21:21;;;;;;;6.10;2.85;;;;;;;9.33;69.12;102149.91;5072697;28;20033;-78
2022/05/04 01:23:47;;;;;;;3.22;2.35;;;;;;;9.31;69.10;102143.84;5057164;28;20025;-78
2022/05/04 01:26:16;;;;;;;5.30;2.95;;;;;;;9.29;69.17;102146.47;5056005;28;20035;-78
2022/05/04 01:28:42;;;;;;;6.57;3.22;;;;;;;9.29;68.90;102145.63;5056997;28;20044;-78
2022/05/04 01:31:08;;;;;;;3.80;2.83;;;;;;;9.28;69.42;102142.16;5057623;28;20129;-78
2022/05/04 01:33:33;;;;;;;4.13;3.17;;;;;;;9.28;69.52;102144.75;5038728;28;20049;-78
2022/05/04 01:35:58;;;;;;;6.13;3.10;;;;;;;9.27;69.22;102148.25;5057332;28;20079;-78
2022/05/04 01:38:24;;;;;;;4.22;3.45;;;;;;;9.25;69.07;102142.19;5057239;28;20371;-78
2022/05/04 01:40:49;;;;;;;3.55;2.90;;;;;;;9.25;69.25;102138.72;5056729;28;20051;-78
2022/05/04 01:43:15;;;;;;;5.75;3.28;;;;;;;9.25;69.17;102133.47;5056023;28;20045;-78
2022/05/04 01:45:40;;;;;;;7.07;3.90;;;;;;;9.23;69.10;102136.13;5072171;28;20111;-78
2022/05/04 01:48:06;;;;;;;5.50;3.17;;;;;;;9.21;69.29;102137.88;5055967;28;20041;-78
2022/05/04 01:50:31;;;;;;;5.82;2.90;;;;;;;9.21;69.26;102137.88;5038532;28;20032;-78
2022/05/04 01:52:56;;;;;;;4.80;2.80;;;;;;;9.20;69.75;102134.41;5057962;28;20044;-78
2022/05/04 01:55:23;;;;;;;8.20;2.72;;;;;;;9.21;69.71;102136.13;5038579;28;20041;-78
2022/05/04 01:57:48;;;;;;;3.03;2.70;;;;;;;9.22;69.53;102137.00;5056941;28;20114;-78
2022/05/04 02:00:13;;;;;;;3.75;2.63;;;;;;;9.22;69.55;102134.38;5050728;28;20328;-78
2022/05/04 02:02:39;;;;;;;4.15;2.92;;;;;;;9.21;69.45;102132.66;5076793;28;20118;-78
2022/05/04 02:05:05;;;;;;;3.90;2.67;;;;;;;9.19;69.45;102126.59;5076783;28;20088;-78
2022/05/04 02:07:34;;;;;;;5.05;2.40;;;;;;;9.18;69.47;102130.94;5076835;28;20083;-78
2022/05/04 02:10:01;;;;;;;4.15;2.45;;;;;;;9.17;69.42;102126.63;5076847;28;20028;-78
2022/05/04 02:12:27;;;;;;;5.40;3.10;;;;;;;9.15;69.46;102125.78;5076339;28;20109;-78
2022/05/04 02:14:53;;;;;;;6.03;2.58;;;;;;;9.14;69.38;102129.25;5076583;28;20073;-78
2022/05/04 02:17:18;;;;;;;4.85;2.78;;;;;;;9.13;69.38;102119.72;5058679;28;20338;-78
2022/05/04 02:19:44;;;;;;;3.65;2.65;;;;;;;9.11;69.44;102120.59;5076321;28;20283;-78
2022/05/04 02:22:09;;;;;;;4.30;2.80;;;;;;;9.10;69.51;102121.50;5058813;28;20351;-78
2022/05/04 02:24:35;;;;;;;5.60;2.97;;;;;;;9.08;69.42;102120.63;5076273;28;20039;-78
2022/05/04 02:27:00;;;;;;;4.43;2.80;;;;;;;9.07;69.42;102118.91;5058650;28;20035;-78
2022/05/04 02:29:25;;;;;;;4.07;2.95;;;;;;;9.05;69.44;102123.31;5077084;28;20033;-78
2022/05/04 02:31:51;;;;;;;4.30;3.00;;;;;;;9.03;69.48;102111.13;5062388;28;20039;-78
2022/05/04 02:34:16;;;;;;;4.78;3.00;;;;;;;9.02;69.60;102105.91;5080225;28;20096;-78
2022/05/04 02:39:25;;;;;;;3.42;2.72;;;;;;;8.97;69.49;102110.34;5064705;28;20039;-78
2022/05/04 02:41:52;;;;;;;5.22;2.70;;;;;;;8.95;69.38;102110.38;5045626;28;20300;-78
2022/05/04 02:44:17;;;;;;;6.55;3.28;;;;;;;8.92;69.25;102113.00;5062016;28;20248;-78
2022/05/04 02:46:43;;;;;;;4.90;2.80;;;;;;;8.89;69.04;102107.81;5079894;28;20086;-78
2022/05/04 02:49:09;;;;;;;5.78;3.15;;;;;;;8.87;69.26;102106.13;5062683;28;20260;-78
2022/05/04 02:51:34;;;;;;;5.55;3.17;;;;;;;8.84;69.50;102104.41;5061481;28;20475;-78
2022/05/04 02:53:59;;;;;;;3.70;2.90;;;;;;;8.80;69.54;102105.34;5027980;28;20110;-78
2022/05/04 02:56:25;;;;;;;6.28;3.22;;;;;;;8.78;69.31;102101.88;5062091;28;20029;-77
2022/05/04 02:58:53;;;;;;;3.63;3.13;;;;;;;8.74;69.51;102106.28;5045232;28;20036;-77
2022/05/04 03:04:08;;;;;;;4.28;3.05;;;;;;;8.69;69.42;102105.47;5044945;28;20047;-78
2022/05/04 03:06:34;;;;;;;3.58;3.28;;;;;;;8.67;69.44;102098.56;5074078;28;20221;-78
2022/05/04 03:08:59;;;;;;;3.58;2.97;;;;;;;8.64;69.54;102100.31;5062322;28;20059;-78
2022/05/04 03:14:09;;;;;;;3.90;3.17;;;;;;;8.58;69.59;102105.59;5064674;28;20295;-78
2022/05/04 03:16:35;;;;;;;6.88;3.33;;;;;;;8.55;69.38;102103.06;5078928;28;20232;-77
2022/05/04 03:19:03;;;;;;;4.18;3.03;;;;;;;8.53;69.34;102104.81;5079867;28;20475;-78
2022/05/04 03:21:28;;;;;;;4.88;2.95;;;;;;;8.51;69.48;102111.78;5061307;28;20052;-78
2022/05/04 03:23:53;;;;;;;4.30;3.40;;;;;;;8.48;69.44;102098.78;5045370;28;20048;-77
2022/05/04 03:26:19;;;;;;;4.25;3.13;;;;;;;8.46;69.46;102105.78;5044433;28;20056;-78
2022/05/04 03:28:45;;;;;;;6.50;3.50;;;;;;;8.41;69.32;102100.56;5044783;28;20036;-78
2022/05/04 03:31:11;;;;;;;3.63;3.15;;;;;;;8.39;69.42;102093.63;5061334;28;20055;-78
2022/05/04 03:33:36;;;;;;;6.10;3.55;;;;;;;8.36;69.43;102091.91;5061090;28;20024;-78
2022/05/04 03:36:02;;;;;;;5.57;3.28;;;;;;;8.35;69.81;102091.91;5044967;28;20324;-78
2022/05/04 03:38:27;;;;;;;5.15;3.33;;;;;;;8.32;69.63;102090.22;5060753;28;20048;-77
2022/05/04 03:40:52;;;;;;;3.63;3.28;;;;;;;8.30;69.52;102080.69;5061076;28;20043;-78
2022/05/04 03:43:18;;;;;;;3.42;3.10;;;;;;;8.29;69.65;102095.47;5060669;28;20040;-78
2022/05/04 03:45:43;;;;;;;4.32;3.70;;;;;;;8.25;69.64;102089.41;5060999;28;20363;-77
2022/05/04 03:48:08;;;;;;;3.67;3.38;;;;;;;8.23;69.74;102083.34;5060965;28;20067;-78
2022/05/04 03:50:34;;;;;;;5.90;3.50;;;;;;;8.21;69.78;102087.72;5078704;28;20036;-78
2022/05/04 03:52:59;;;;;;;6.55;3.38;;;;;;;8.18;69.82;102082.53;5044015;28;20064;-78
2022/05/04 03:55:24;;;;;;;3.90;3.53;;;;;;;8.17;69.79;102085.19;5077223;28;20420;-78
2022/05/04 03:57:50;;;;;;;4.15;3.30;;;;;;;8.15;69.75;102081.69;5059034;28;20051;-78
2022/05/04 04:00:16;;;;;;;5.32;3.15;;;;;;;8.12;69.98;102089.59;5042444;28;20043;-78
2022/05/04 04:02:42;;;;;;;6.50;3.58;;;;;;;8.09;69.84;102085.25;5058996;28;20332;-77
2022/05/04 04:05:07;;;;;;;5.10;3.83;;;;;;;8.07;69.80;102085.25;5059231;28;20032;-78
2022/05/04 04:07:33;;;;;;;5.72;3.83;;;;;;;8.05;70.19;102084.41;5075831;28;20133;-78
2022/05/04 04:09:58;;;;;;;4.78;4.00;;;;;;;8.03;70.00;102080.94;5042726;28;20035;-78
2022/05/04 04:12:24;;;;;;;3.70;3.40;;;;;;;8.02;69.98;102100.13;5076422;28;20032;-77
2022/05/04 04:14:49;;;;;;;7.50;3.40;;;;;;;7.99;70.06;102092.31;5058904;28;20043;-78
2022/05/04 04:17:15;;;;;;;4.95;3.50;;;;;;;7.98;69.98;102090.56;5040947;28;20318;-78
2022/05/04 04:19:40;;;;;;;4.20;3.53;;;;;;;7.95;70.03;102090.63;5054855;28;20047;-78
2022/05/04 04:22:05;;;;;;;5.68;3.97;;;;;;;7.93;70.00;102081.94;5071800;28;20303;-78
2022/05/04 04:24:31;;;;;;;5.30;3.75;;;;;;;7.92;70.46;102090.63;5041178;28;20244;-78
2022/05/04 04:26:56;;;;;;;5.03;3.80;;;;;;;7.90;70.07;102089.78;5058915;28;20350;-78
2022/05/04 04:29:21;;;;;;;6.75;4.03;;;;;;;7.86;70.17;102086.34;5041988;28;20043;-78
2022/05/04 04:31:47;;;;;;;4.80;3.72;;;;;;;7.85;70.07;102089.81;5058329;28;20059;-78
2022/05/04 04:34:12;;;;;;;9.02;4.45;;;;;;;7.84;70.29;102097.66;5058495;28;20048;-78
2022/05/04 04:36:38;;;;;;;4.90;4.00;;;;;;;7.82;70.13;102100.31;5076560;28;20052;-78
2022/05/04 04:39:04;;;;;;;7.72;4.20;;;;;;;7.82;70.39;102107.25;5058628;28;20039;-77
2022/05/04 04:41:30;;;;;;;4.93;4.20;;;;;;;7.78;70.22;102103.78;5076198;28;20028;-78
2022/05/04 04:43:55;;;;;;;5.97;3.95;;;;;;;7.78;70.57;102098.56;5041858;28;20028;-78
2022/05/04 04:46:21;;;;;;;5.57;4.43;;;;;;;7.77;70.45;102098.63;5052320;28;20055;-78
2022/05/04 04:48:46;;;;;;;9.45;4.20;;;;;;;7.75;70.57;102103.84;5016830;28;20063;-77
2022/05/04 04:51:11;;;;;;;8.93;4.30;;;;;;;7.74;70.63;102109.91;5041815;28;20032;-77
2022/05/04 04:53:38;;;;;;;5.18;4.00;;;;;;;7.74;70.77;102109.06;5057083;28;20043;-78
2022/05/04 04:56:04;;;;;;;8.80;4.25;;;;;;;7.72;70.82;102103.84;5058101;28;20097;-78
2022/05/04 04:58:30;;;;;;;4.85;3.90;;;;;;;7.72;70.66;102114.28;5057501;28;20075;-78
2022/05/04 05:00:56;;;;;;;8.90;4.47;;;;;;;7.70;70.75;102116.03;5068057;28;20036;-78
2022/05/04 05:03:22;;;;;;;11.90;3.80;;;;;;;7.69;70.77;102109.97;5042964;28;20055;-78
2022/05/04 05:05:47;;;;;;;5.32;3.65;;;;;;;7.68;70.86;102110.84;5072329;28;20271;-77
2022/05/04 05:08:12;;;;;;;9.77;4.00;;;;;;;7.68;70.76;102104.78;5061133;28;20040;-78
2022/05/04 05:10:39;;;;;;;7.18;4.70;;;;;;;7.67;71.09;102110.84;5076022;28;20036;-78
2022/05/04 05:13:05;;;;;;;5.75;4.10;;;;;;;7.67;71.08;102105.63;5057230;28;20070;-78
2022/05/04 05:18:18;;;;;;;6.95;4.45;;;;;;;7.67;71.28;102110.84;5074826;28;20040;-78
2022/05/04 05:20:43;;;;;;;7.47;4.50;;;;;;;7.67;71.29;102116.06;5074416;28;20044;-78
2022/05/04 05:23:09;;;;;;;9.30;3.78;;;;;;;7.66;71.26;102112.59;5074946;28;20043;-78
2022/05/04 05:25:34;;;;;;;6.95;3.95;;;;;;;7.67;71.43;102113.44;5074782;28;20079;-78
2022/05/04 05:28:00;;;;;;;6.55;4.43;;;;;;;7.67;71.45;102121.28;5056904;28;20085;-78
2022/05/04 05:30:25;;;;;;;6.55;4.38;;;;;;;7.68;71.72;102115.19;5039920;28;20324;-78
2022/05/04 05:32:50;;;;;;;6.32;4.07;;;;;;;7.68;71.71;102112.59;5039466;28;20041;-78
2022/05/04 05:35:17;;;;;;;6.65;4.28;;;;;;;7.69;71.77;102109.09;5053773;28;20033;-78
2022/05/04 05:37:42;;;;;;;8.65;4.85;;;;;;;7.70;72.11;102108.22;5039108;28;20036;-78
2022/05/04 05:40:08;;;;;;;3.97;3.60;;;;;;;7.71;72.41;102112.53;5056281;28;20059;-78
2022/05/04 05:42:35;;;;;;;7.82;3.78;;;;;;;7.73;72.34;102107.31;5074314;28;20032;-78
2022/05/04 05:45:00;;;;;;;6.22;4.20;;;;;;;7.74;72.20;102109.91;5056095;28;20063;-78
2022/05/04 05:47:26;;;;;;;4.32;3.90;;;;;;;7.75;72.49;102109.06;5056593;28;20356;-78
2022/05/04 05:49:51;;;;;;;6.53;4.78;;;;;;;7.75;72.62;102114.28;5040920;28;20067;-78
2022/05/04 05:52:17;;;;;;;5.40;3.83;;;;;;;7.77;72.75;102116.88;5075151;28;20090;-78
2022/05/04 05:54:43;;;;;;;15.25;5.47;;;;;;;7.71;73.25;102106.47;5057333;28;20053;-78
2022/05/04 05:57:09;;;;;;;8.20;5.07;;;;;;;7.74;73.32;102109.91;5056705;28;20371;-77
2022/05/04 05:59:34;;;;;;;8.25;4.85;;;;;;;7.66;73.12;102109.13;5044267;28;20048;-78
2022/05/04 06:01:59;;;;;;;9.00;6.15;;;;;;;7.61;73.38;102106.56;5037554;28;20355;-78
2022/05/04 06:04:25;;;;;;;8.15;4.80;;;;;;;7.61;73.57;102119.59;5076951;28;20388;-78
2022/05/04 06:06:51;;;;;;;11.85;5.10;;;;;;;7.64;73.71;102126.50;5078422;28;20032;-78
2022/05/04 06:09:16;;;;;;;8.00;5.25;;;;;;;7.63;73.22;102122.19;5078689;28;20028;-78
2022/05/04 06:11:42;;;;;;;9.45;4.70;;;;;;;7.59;72.93;102123.09;5058005;28;20041;-78
2022/05/04 06:14:07;;;;;;;6.55;4.65;;;;;;;7.64;72.94;102119.56;5008788;28;20236;-78
2022/05/04 06:16:32;;;;;;;22.23;5.50;;;;;;;7.64;72.71;102119.56;5057750;28;20032;-78
2022/05/04 06:18:58;;;;;;;25.73;5.28;;;;;;;7.66;72.67;102115.22;5044462;28;20032;-78
2022/05/04 06:21:23;;;;;;;10.65;5.00;;;;;;;7.72;72.62;102118.66;5078513;28;20044;-78
2022/05/04 06:23:48;;;;;;;7.57;4.63;;;;;;;7.69;72.74;102125.63;5060929;28;20116;-78
2022/05/04 06:26:14;;;;;;;11.02;4.57;;;;;;;7.72;72.50;102118.66;5060374;28;20040;-78
2022/05/04 06:28:39;;;;;;;7.28;4.60;;;;;;;7.75;72.61;102121.22;5044206;28;20089;-78
2022/05/04 06:34:07;;;;;;;9.20;3.97;;;;;;;7.81;72.46;102121.19;5068026;28;20102;-78
2022/05/04 06:36:33;;;;;;;5.78;3.92;;;;;;;7.83;72.29;102125.47;5074083;28;20328;-78
2022/05/04 06:38:59;;;;;;;8.68;3.80;;;;;;;7.79;72.01;102125.53;5054765;28;20255;-78
2022/05/04 06:41:24;;;;;;;8.20;4.20;;;;;;;7.81;72.06;102123.78;5043235;28;20039;-77
2022/05/04 06:43:50;;;;;;;7.38;3.60;;;;;;;7.81;71.69;102115.97;5078165;28;20037;-77
2022/05/04 06:46:15;;;;;;;6.63;3.92;;;;;;;7.83;71.78;102122.88;5061338;28;20236;-77
2022/05/04 06:48:41;;;;;;;9.65;4.13;;;;;;;7.88;71.73;102128.94;5077926;28;20415;-78
2022/05/04 06:51:08;;;;;;;6.80;4.00;;;;;;;7.89;71.74;102127.19;5074332;28;20093;-78
2022/05/04 06:53:34;;;;;;;9.43;4.22;;;;;;;7.91;71.97;102127.16;5077286;28;20088;-78
2022/05/04 06:56:01;;;;;;;15.38;4.78;;;;;;;7.93;72.31;102126.28;5043475;28;20052;-78
2022/05/04 06:58:26;;;;;;;13.85;4.35;;;;;;;7.98;72.74;102132.31;5040385;28;20043;-78
2022/05/04 07:00:52;;;;;;;8.52;4.40;;;;;;;8.04;72.75;102134.00;5034790;28;20065;-78
2022/05/04 07:03:17;;;;;;;10.55;4.50;;;;;;;8.05;72.78;102128.75;5076631;28;20040;-78
2022/05/04 07:05:43;;;;;;;7.50;4.55;;;;;;;8.09;73.06;102132.22;5071225;28;20358;-78
2022/05/04 07:08:09;;;;;;;8.18;4.63;;;;;;;8.11;73.16;102133.06;5071845;28;20028;-77
2022/05/04 07:10:35;;;;;;;8.82;4.63;;;;;;;8.13;71.14;102133.94;5050946;28;20127;-78
2022/05/04 07:13:00;;;;;;;14.45;4.85;;;;;;;8.11;70.22;102133.06;5051174;28;20067;-79
2022/05/04 07:15:25;;;;;;;10.05;3.95;;;;;;;8.13;70.75;102141.75;5022184;28;20224;-78
2022/05/04 07:17:51;;;;;;;11.13;5.38;;;;;;;8.19;71.13;102130.38;5072841;28;20036;-78
2022/05/04 07:20:16;;;;;;;7.97;4.30;;;;;;;8.22;71.41;102126.00;5051662;28;20355;-78
2022/05/04 07:22:42;;;;;;;5.57;3.60;;;;;;;8.24;70.65;102128.56;5055223;28;20355;-78
2022/05/04 07:25:07;;;;;;;4.20;3.80;;;;;;;8.27;70.32;102128.56;5069660;28;20060;-78
2022/05/04 07:27:33;;;;;;;9.63;4.72;;;;;;;8.32;69.67;102131.13;5078169;28;20040;-78
2022/05/04 07:29:59;;;;;;;6.53;4.13;;;;;;;8.35;69.91;102131.06;5060103;28;20039;-78
2022/05/04 07:32:24;;;;;;;10.65;4.25;;;;;;;8.40;69.94;102124.06;5075437;28;20037;-78
2022/05/04 07:34:50;;;;;;;6.53;4.80;;;;;;;8.41;70.19;102129.28;5059870;28;20355;-78
2022/05/04 07:37:15;;;;;;;8.95;5.32;;;;;;;8.45;70.28;102127.53;5059369;28;20037;-78
2022/05/04 07:42:25;;;;;;;6.13;4.22;;;;;;;8.48;70.26;102118.78;5074737;28;20508;-78
2022/05/04 07:44:57;;;;;;;7.22;4.70;;;;;;;8.52;70.31;102123.97;5076516;28;20059;-78
2022/05/04 07:47:22;;;;;;;10.93;5.28;;;;;;;8.52;69.92;102123.97;5057847;28;20036;-78
2022/05/04 07:49:48;;;;;;;10.55;5.38;;;;;;;8.55;69.76;102133.50;5059491;28;20075;-78
2022/05/04 07:52:14;;;;;;;7.72;5.38;;;;;;;8.60;69.80;102129.09;5076995;28;20046;-78
2022/05/04 07:54:39;;;;;;;11.93;5.63;;;;;;;8.59;69.87;102120.41;5086666;28;20055;-78
2022/05/04 07:57:05;;;;;;;10.35;5.32;;;;;;;8.62;69.58;102128.22;5077767;28;20048;-78
2022/05/04 07:59:30;;;;;;;9.40;5.30;;;;;;;8.61;69.47;102123.84;5058690;28;20037;-78
2022/05/04 08:04:39;;;;;;;10.43;4.97;;;;;;;8.66;69.69;102123.81;5061583;28;20035;-78
2022/05/04 08:07:05;;;;;;;10.80;5.28;;;;;;;8.67;69.52;102116.84;5058003;28;20095;-78
2022/05/04 08:09:34;;;;;;;15.13;5.38;;;;;;;8.70;69.73;102120.28;5071684;28;20059;-78
2022/05/04 08:12:00;;;;;;;12.57;5.90;;;;;;;8.72;70.05;102115.88;5053683;28;20037;-78
2022/05/04 08:14:25;;;;;;;23.23;6.18;;;;;;;8.74;69.73;102128.94;5056010;28;20129;-80
2022/05/04 08:16:50;;;;;;;12.00;5.28;;;;;;;8.79;69.53;102132.34;5038963;28;20214;-80
2022/05/04 08:19:16;;;;;;;9.52;5.28;;;;;;;8.81;69.56;102133.19;5040150;28;20081;-80
2022/05/04 08:21:41;;;;;;;9.15;5.65;;;;;;;8.86;69.15;102135.75;5038837;28;20064;-80
2022/05/04 08:24:07;;;;;;;11.00;5.55;;;;;;;8.85;68.99;102132.28;5043613;28;20040;-80
2022/05/04 08:26:33;;;;;;;14.40;5.30;;;;;;;8.88;68.53;102128.75;5055599;28;20059;-80
2022/05/04 08:28:58;;;;;;;14.70;5.90;;;;;;;8.90;68.82;102127.84;5073587;28;20048;-80
2022/05/04 08:31:24;;;;;;;8.07;5.35;;;;;;;8.93;68.72;102121.72;5039916;28;20242;-80
2022/05/04 08:33:50;;;;;;;8.73;6.03;;;;;;;8.96;68.97;102125.16;5056919;28;20074;-80
2022/05/04 08:36:15;;;;;;;7.90;5.30;;;;;;;9.02;68.83;102124.19;5040294;28;20062;-80
2022/05/04 08:38:40;;;;;;;10.07;5.32;;;;;;;9.05;69.03;102123.31;5056368;28;20272;-80
2022/05/04 08:41:07;;;;;;;11.82;5.68;;;;;;;9.06;68.92;102123.28;5056372;28;20033;-80
2022/05/04 08:43:32;;;;;;;8.00;5.55;;;;;;;9.07;68.87;102129.38;5059125;28;20503;-80
2022/05/04 08:46:01;;;;;;;10.95;5.22;;;;;;;9.09;68.80;102130.22;5051238;28;20100;-80
2022/05/04 08:48:27;;;;;;;12.85;5.63;;;;;;;9.10;68.92;102118.88;5079806;28;20047;-81
2022/05/04 08:50:54;;;;;;;17.85;5.97;;;;;;;9.11;68.75;102125.81;5067401;28;20028;-80
2022/05/04 08:53:19;;;;;;;8.23;5.97;;;;;;;9.14;68.58;102128.41;5067238;28;20033;-80
2022/05/04 08:55:46;;;;;;;9.77;5.18;;;;;;;9.17;68.53;102120.53;5068022;28;20063;-80
2022/05/04 08:58:12;;;;;;;10.82;6.05;;;;;;;9.22;68.60;102122.19;5070820;28;20033;-80
2022/05/04 09:00:37;;;;;;;11.05;5.28;;;;;;;9.29;68.34;102117.72;5051446;28;20028;-80
2022/05/04 09:03:03;;;;;;;5.70;4.97;;;;;;;9.34;68.38;102126.34;5066061;28;20028;-81
2022/05/04 09:05:33;;;;;;;7.03;5.57;;;;;;;9.37;67.76;102118.47;5068253;28;20089;-81
2022/05/04 09:07:59;;;;;;;11.68;5.47;;;;;;;9.41;68.07;102120.16;5067047;28;20035;-81
2022/05/04 09:10:27;;;;;;;9.93;5.15;;;;;;;9.44;67.75;102124.50;5062548;28;20017;-81
2022/05/04 09:12:55;;;;;;;6.47;4.93;;;;;;;9.46;67.78;102122.72;5068465;28;20104;-80
2022/05/04 09:15:29;;;;;;;32.22;6.07;;;;;;;9.53;67.77;102126.97;5062508;28;20068;-80
2022/05/04 09:18:00;;;;;;;10.45;5.18;;;;;;;9.58;67.55;102119.03;5048094;28;20063;-80
2022/05/04 09:20:47;;;;;;;8.85;5.30;;;;;;;9.62;67.25;102120.69;5044509;28;20039;-80
2022/05/04 09:23:23;;;;;;;9.70;5.05;;;;;;;9.65;66.95;102115.41;5052332;28;20423;-80
2022/05/04 09:25:54;;;;;;;8.40;5.13;;;;;;;9.68;66.88;102115.38;5050644;28;20227;-80
2022/05/04 09:28:20;;;;;;;8.05;4.95;;;;;;;9.72;67.04;102109.19;5051416;28;20164;-80
2022/05/04 09:30:51;;;;;;;9.35;5.45;;;;;;;9.76;67.19;102097.78;5048138;28;20025;-80
2022/05/04 09:33:23;;;;;;;12.43;5.60;;;;;;;9.80;66.98;102099.47;5051680;28;20394;-80
2022/05/04 09:35:50;;;;;;;8.68;6.05;;;;;;;9.86;67.34;102103.75;5049344;28;20049;-80
2022/05/04 09:46:47;;;;;;;8.05;5.78;;;;;;;10.02;65.85;102103.44;5051168;28;20072;-80
2022/05/04 09:49:16;;;;;;;9.35;5.63;;;;;;;10.05;65.65;102093.78;5049243;28;20044;-81
2022/05/04 09:51:49;;;;;;;9.65;5.63;;;;;;;10.09;66.25;102097.22;5051404;28;20025;-81
2022/05/04 09:54:18;;;;;;;6.93;5.22;;;;;;;10.12;66.02;102090.16;5056344;28;20057;-81
2022/05/04 09:56:49;;;;;;;7.10;5.38;;;;;;;10.16;65.91;102093.59;5069083;28;20247;-80
2022/05/04 09:59:16;;;;;;;9.82;5.45;;;;;;;10.19;66.35;102090.94;5072032;28;20028;-80
2022/05/04 10:01:43;;;;;;;10.05;5.60;;;;;;;10.22;65.65;102096.09;5052205;28;20304;-81
2022/05/04 10:04:10;;;;;;;11.15;5.18;;;;;;;10.25;65.56;102097.78;5069518;28;20039;-81
2022/05/04 10:06:35;;;;;;;9.23;5.10;;;;;;;10.29;66.77;102088.97;5069583;28;20210;-81
2022/05/04 10:09:03;;;;;;;9.68;5.70;;;;;;;10.31;66.47;102095.09;5049150;28;20041;-81
2022/05/04 10:11:30;;;;;;;8.50;5.30;;;;;;;10.34;65.87;102097.66;5056963;28;20146;-81
2022/05/04 10:14:01;;;;;;;8.65;5.50;;;;;;;10.37;65.09;102090.59;5070835;28;20521;-81
2022/05/04 10:16:31;;;;;;;7.82;5.20;;;;;;;10.40;64.48;102086.19;5074363;28;20025;-81
2022/05/04 10:18:59;;;;;;;12.90;5.95;;;;;;;10.42;64.26;102089.63;5071036;28;20070;-81
2022/05/04 10:21:26;;;;;;;10.93;5.40;;;;;;;10.46;65.52;102086.06;5055688;28;20036;-81
2022/05/04 10:23:55;;;;;;;11.75;5.38;;;;;;;10.51;64.00;102092.94;5055426;28;20024;-81
2022/05/04 10:26:35;;;;;;;9.65;5.47;;;;;;;10.56;63.14;102091.06;5055785;28;20086;-81
2022/05/04 10:31:56;;;;;;;11.15;5.25;;;;;;;10.74;64.14;102083.72;5074483;28;20036;-81
2022/05/04 10:34:22;;;;;;;12.32;6.03;;;;;;;10.84;64.51;102087.88;5056271;28;20036;-81
2022/05/04 10:36:52;;;;;;;9.95;5.30;;;;;;;10.93;63.29;102081.56;5068734;28;20036;-81
2022/05/04 10:39:21;;;;;;;7.47;4.95;;;;;;;11.00;63.08;102079.66;5053393;28;20048;-81
2022/05/04 10:41:47;;;;;;;17.60;6.45;;;;;;;11.06;63.34;102074.28;5066994;28;20032;-81
2022/05/04 10:44:13;;;;;;;8.63;4.70;;;;;;;11.07;62.61;102070.78;5066248;28;20075;-81
2022/05/04 10:46:41;;;;;;;9.18;5.15;;;;;;;11.13;64.12;102074.13;5066011;28;20256;-81
2022/05/04 10:49:09;;;;;;;8.02;5.85;;;;;;;11.25;64.51;102078.19;5065431;28;20332;-81
2022/05/04 10:51:36;;;;;;;15.00;5.77;;;;;;;11.32;63.93;102079.78;5057657;28;20037;-81
2022/05/04 10:54:28;;;;;;;14.77;5.30;;;;;;;11.40;62.29;102083.97;5073916;28;20074;-81
2022/05/04 10:56:54;;;;;;;8.57;5.68;;;;;;;11.42;62.64;102082.19;5075292;28;20044;-81
2022/05/04 10:59:31;;;;;;;10.70;5.80;;;;;;;11.46;63.70;102068.97;5079010;28;20047;-81
2022/05/04 11:02:00;;;;;;;10.77;6.20;;;;;;;11.55;63.32;102080.13;5078888;28;20344;-81
2022/05/04 11:04:26;;;;;;;10.95;5.97;;;;;;;11.59;63.03;102073.88;5061266;28;20090;-81
2022/05/04 11:07:01;;;;;;;10.57;5.68;;;;;;;11.61;62.52;102065.09;5075931;28;20402;-81
2022/05/04 11:09:39;;;;;;;8.52;6.05;;;;;;;11.65;62.44;102071.97;5077589;28;20049;-81
2022/05/04 11:12:07;;;;;;;7.75;5.28;;;;;;;11.66;63.25;102067.59;5077038;28;20043;-81
2022/05/04 11:14:34;;;;;;;12.20;5.68;;;;;;;11.66;62.35;102075.44;5076926;28;20308;-81
2022/05/04 11:17:00;;;;;;;15.30;6.13;;;;;;;11.65;61.53;102071.97;5056548;28;20516;-81
2022/05/04 11:19:28;;;;;;;12.98;5.30;;;;;;;11.66;61.94;102075.44;5076752;28;20063;-81
2022/05/04 11:21:55;;;;;;;9.03;5.90;;;;;;;11.66;62.05;102075.44;5074141;28;20110;-81
2022/05/04 11:24:21;;;;;;;9.50;5.75;;;;;;;11.67;62.47;102071.94;5041420;28;20294;-81
2022/05/04 11:26:51;;;;;;;9.13;5.63;;;;;;;11.70;62.39;102066.63;5074871;28;20260;-81
2022/05/04 11:29:20;;;;;;;11.27;5.60;;;;;;;11.74;62.58;102064.78;5057654;28;20111;-81
2022/05/04 11:31:57;;;;;;;9.85;5.53;;;;;;;11.84;62.43;102056.63;5078066;28;20034;-81
2022/05/04 11:34:28;;;;;;;9.10;5.18;;;;;;;11.91;63.02;102059.97;5064094;28;20028;-81
2022/05/04 11:36:56;;;;;;;5.55;4.55;;;;;;;12.01;63.90;102050.09;5061907;28;20020;-81
2022/05/04 11:39:27;;;;;;;8.25;6.13;;;;;;;12.09;63.07;102061.22;5075235;28;20364;-81
2022/05/04 11:41:55;;;;;;;8.73;5.25;;;;;;;12.17;63.84;102051.41;5075013;28;20040;-81
2022/05/04 11:44:22;;;;;;;7.68;5.70;;;;;;;12.24;63.18;102050.31;5077563;28;20519;-81
2022/05/04 11:46:49;;;;;;;8.98;5.88;;;;;;;12.29;64.64;102048.41;5066767;28;20028;-81
2022/05/04 11:49:15;;;;;;;11.15;6.32;;;;;;;12.33;61.97;102043.06;5069030;28;20036;-81
2022/05/04 11:51:42;;;;;;;9.70;5.80;;;;;;;12.40;64.12;102042.84;5043017;28;20051;-81
2022/05/04 11:54:07;;;;;;;10.27;6.22;;;;;;;12.46;63.55;102041.78;5057427;28;20070;-81
2022/05/04 11:56:34;;;;;;;9.65;5.85;;;;;;;12.58;62.84;102036.19;5053633;28;20025;-81